Time;durP1;ratioP1;P1;durP2;ratioP2;P2;SDS_P1;SDS_P2;PMS_P1;PMS_P2;Temp;Humidity;BMP_temperature;BMP_pressure;BME280_temperature;BME280_humidity;BME280_pressure;Samples;Min_cycle;Max_cycle;Signal;HPM_P1;HPM_P2
2022/03/29 00:00:38;;;;;;;25.20;16.63;;;9.70;99.90;;;;;;2613744;54;20450;-79
2022/03/29 00:03:05;;;;;;;23.70;16.47;;;9.60;99.90;;;;;;2614662;54;20950;-78
2022/03/29 00:05:30;;;;;;;28.27;16.93;;;9.60;99.90;;;;;;2612852;39;20762;-80
2022/03/29 00:07:56;;;;;;;23.10;15.43;;;9.60;99.90;;;;;;2612269;54;20401;-77
2022/03/29 00:10:23;;;;;;;27.43;16.73;;;9.60;99.90;;;;;;2612335;51;20173;-77
2022/03/29 00:12:53;;;;;;;24.20;15.60;;;9.50;99.90;;;;;;2611975;39;20903;-77
2022/03/29 00:15:22;;;;;;;28.10;16.17;;;9.50;99.90;;;;;;2612038;54;20506;-79
2022/03/29 00:17:49;;;;;;;19.70;14.70;;;9.50;99.90;;;;;;2611748;39;20814;-77
2022/03/29 00:20:18;;;;;;;28.77;17.90;;;9.50;99.90;;;;;;2612103;47;20982;-81
2022/03/29 00:22:44;;;;;;;25.53;15.93;;;9.50;99.90;;;;;;2611054;46;21022;-80
2022/03/29 00:25:11;;;;;;;22.93;14.83;;;9.50;99.90;;;;;;2611066;54;20441;-81
2022/03/29 00:27:38;;;;;;;25.10;16.77;;;9.50;99.90;;;;;;2611272;54;20531;-80
2022/03/29 00:30:06;;;;;;;24.23;16.73;;;9.50;99.90;;;;;;2613836;54;20517;-78
2022/03/29 00:32:32;;;;;;;20.37;14.33;;;9.50;99.90;;;;;;2612747;54;21003;-80
2022/03/29 00:34:58;;;;;;;21.37;14.40;;;9.50;99.90;;;;;;2612226;47;21822;-79
2022/03/29 00:37:24;;;;;;;28.27;16.73;;;9.50;99.90;;;;;;2612554;54;20150;-80
2022/03/29 00:39:50;;;;;;;20.53;15.07;;;9.50;99.90;;;;;;2612259;54;20471;-80
2022/03/29 00:42:16;;;;;;;24.67;16.30;;;9.40;99.90;;;;;;2611600;54;20548;-80
2022/03/29 00:44:42;;;;;;;22.47;16.83;;;9.40;99.90;;;;;;2612307;54;20253;-81
2022/03/29 00:47:07;;;;;;;25.20;17.00;;;9.40;99.90;;;;;;2612173;54;20172;-78
2022/03/29 00:49:33;;;;;;;24.43;16.67;;;9.40;99.90;;;;;;2611896;54;20425;-79
2022/03/29 00:52:03;;;;;;;28.23;17.80;;;9.30;99.90;;;;;;2612261;54;20417;-80
2022/03/29 00:54:30;;;;;;;22.00;16.13;;;9.30;99.90;;;;;;2613271;54;20149;-79
2022/03/29 00:57:00;;;;;;;30.83;16.43;;;9.30;99.90;;;;;;2613285;54;20501;-80
2022/03/29 00:59:27;;;;;;;23.47;17.40;;;9.30;99.90;;;;;;2610906;47;20425;-82
2022/03/29 01:01:54;;;;;;;25.50;17.60;;;9.40;99.90;;;;;;2611659;54;20423;-76
2022/03/29 01:04:21;;;;;;;25.30;18.37;;;9.30;99.90;;;;;;2609849;54;20418;-79
2022/03/29 01:06:47;;;;;;;24.00;17.60;;;9.30;99.90;;;;;;2612269;54;20438;-79
2022/03/29 01:09:13;;;;;;;25.50;16.27;;;9.10;99.90;;;;;;2612420;47;20419;-83
2022/03/29 01:11:39;;;;;;;27.40;18.50;;;9.10;99.90;;;;;;2611919;39;20654;-79
2022/03/29 01:14:05;;;;;;;31.83;18.53;;;9.10;99.90;;;;;;2612679;54;20457;-82
2022/03/29 01:19:24;;;;;;;29.47;18.37;;;9.10;99.90;;;;;;2612570;54;21939;-81
2022/03/29 01:22:01;;;;;;;28.13;19.63;;;9.20;99.90;;;;;;2611573;54;20420;-81
2022/03/29 01:24:29;;;;;;;28.10;19.40;;;9.10;99.90;;;;;;2613146;39;20815;-81
2022/03/29 01:27:05;;;;;;;24.80;17.47;;;9.10;99.90;;;;;;2612497;54;20423;-80
2022/03/29 01:29:33;;;;;;;29.53;18.63;;;9.00;99.90;;;;;;2611870;54;20422;-81
2022/03/29 01:32:02;;;;;;;27.70;19.43;;;9.00;99.90;;;;;;2612896;39;20783;-80
2022/03/29 01:34:28;;;;;;;25.83;18.93;;;8.90;99.90;;;;;;2613353;54;20563;-79
2022/03/29 01:36:54;;;;;;;28.57;20.47;;;8.90;99.90;;;;;;2614268;54;20429;-80
2022/03/29 01:39:21;;;;;;;34.43;21.37;;;8.90;99.90;;;;;;2613260;54;20410;-81
2022/03/29 01:41:47;;;;;;;31.73;21.47;;;8.80;99.90;;;;;;2612453;54;20460;-80
2022/03/29 01:44:13;;;;;;;31.10;22.30;;;8.80;99.90;;;;;;2611772;47;20482;-80
2022/03/29 01:46:40;;;;;;;28.20;19.47;;;9.00;99.90;;;;;;2610887;54;20453;-81
2022/03/29 01:49:06;;;;;;;35.00;19.40;;;9.10;99.90;;;;;;2613473;47;20498;-79
2022/03/29 01:51:33;;;;;;;27.20;17.80;;;9.10;99.90;;;;;;2611999;54;20407;-80
2022/03/29 01:54:02;;;;;;;26.90;20.30;;;9.10;99.90;;;;;;2613143;47;20455;-78
2022/03/29 01:56:33;;;;;;;30.70;20.20;;;9.00;99.90;;;;;;2612017;54;20438;-80
2022/03/29 01:59:03;;;;;;;34.43;20.83;;;8.90;99.90;;;;;;2611655;54;20421;-81
2022/03/29 02:01:29;;;;;;;28.23;20.47;;;9.00;99.90;;;;;;2610859;47;21325;-81
2022/03/29 02:03:54;;;;;;;29.80;21.40;;;8.90;99.90;;;;;;2612988;47;20434;-80
2022/03/29 02:06:20;;;;;;;35.77;22.60;;;8.90;99.90;;;;;;2614052;54;20137;-79
2022/03/29 02:08:46;;;;;;;31.27;21.17;;;8.80;99.90;;;;;;2611592;54;20162;-81
2022/03/29 02:11:13;;;;;;;31.77;23.23;;;8.70;99.90;;;;;;2611921;54;20400;-80
2022/03/29 02:13:39;;;;;;;31.83;21.43;;;8.70;99.90;;;;;;2613006;54;20512;-77
2022/03/29 02:16:05;;;;;;;32.73;23.90;;;8.80;99.90;;;;;;2614135;54;20438;-80
2022/03/29 02:18:31;;;;;;;39.10;23.07;;;8.70;99.90;;;;;;2612113;47;20541;-80
2022/03/29 02:20:57;;;;;;;36.17;23.07;;;8.70;99.90;;;;;;2611139;54;20411;-80
2022/03/29 02:23:22;;;;;;;33.63;23.40;;;8.70;99.90;;;;;;2613108;54;20317;-80
2022/03/29 02:25:48;;;;;;;35.53;22.47;;;8.70;99.90;;;;;;2613662;39;20565;-80
2022/03/29 02:28:15;;;;;;;35.93;23.67;;;8.70;99.90;;;;;;2612126;54;20153;-79
2022/03/29 02:30:41;;;;;;;32.13;23.00;;;8.70;99.90;;;;;;2613380;54;20415;-79
2022/03/29 02:33:07;;;;;;;33.57;23.60;;;8.60;99.90;;;;;;2612796;54;21102;-80
2022/03/29 02:35:33;;;;;;;32.70;22.10;;;8.50;99.90;;;;;;2611398;47;20519;-79
2022/03/29 02:38:00;;;;;;;38.00;23.63;;;8.50;99.90;;;;;;2611427;54;20162;-80
2022/03/29 02:40:26;;;;;;;34.47;22.20;;;8.50;99.90;;;;;;2613251;54;20601;-79
2022/03/29 02:42:55;;;;;;;31.77;22.53;;;8.50;99.90;;;;;;2613304;39;20520;-79
2022/03/29 02:45:25;;;;;;;30.40;21.80;;;8.60;99.90;;;;;;2611841;54;20425;-80
2022/03/29 02:47:54;;;;;;;34.43;22.30;;;8.60;99.90;;;;;;2613341;54;20438;-81
2022/03/29 02:50:21;;;;;;;37.60;22.93;;;8.60;99.90;;;;;;2612224;54;20434;-80
2022/03/29 02:52:55;;;;;;;38.50;25.10;;;8.50;99.90;;;;;;2611618;54;20434;-79
2022/03/29 02:55:24;;;;;;;34.87;24.60;;;8.50;99.90;;;;;;2612554;54;20402;-80
2022/03/29 02:57:50;;;;;;;34.13;22.43;;;8.50;99.90;;;;;;2613311;54;20419;-79
2022/03/29 03:00:17;;;;;;;34.73;23.40;;;8.60;99.90;;;;;;2611411;54;21641;-80
2022/03/29 03:02:45;;;;;;;32.57;23.20;;;8.60;99.90;;;;;;2612111;54;20173;-80
2022/03/29 03:05:11;;;;;;;35.03;25.90;;;8.70;99.90;;;;;;2612485;54;20471;-81
2022/03/29 03:07:42;;;;;;;37.70;23.93;;;8.70;99.90;;;;;;2614010;54;20511;-80
2022/03/29 03:10:08;;;;;;;38.90;25.73;;;8.60;99.90;;;;;;2613006;31;20916;-80
2022/03/29 03:12:49;;;;;;;41.33;26.37;;;8.60;99.90;;;;;;2613490;46;20442;-79
2022/03/29 03:15:18;;;;;;;36.97;25.17;;;8.60;99.90;;;;;;2613854;54;20406;-79
2022/03/29 03:17:45;;;;;;;41.70;26.13;;;8.50;99.90;;;;;;2611516;54;20461;-79
2022/03/29 03:20:12;;;;;;;39.40;28.10;;;8.50;99.90;;;;;;2611841;54;20422;-80
2022/03/29 03:22:39;;;;;;;42.80;27.30;;;8.50;99.90;;;;;;2612397;51;20422;-81
2022/03/29 03:25:06;;;;;;;40.10;26.60;;;8.50;99.90;;;;;;2613076;54;20400;-81
2022/03/29 03:27:34;;;;;;;44.73;28.50;;;8.40;99.90;;;;;;2612699;54;20415;-78
2022/03/29 03:30:04;;;;;;;39.27;28.80;;;8.40;99.90;;;;;;2612648;54;20420;-79
2022/03/29 03:32:30;;;;;;;41.27;28.17;;;8.40;99.90;;;;;;2613380;54;20975;-81
2022/03/29 03:34:57;;;;;;;44.93;28.83;;;8.30;99.90;;;;;;2613923;54;20490;-79
2022/03/29 03:37:23;;;;;;;41.20;27.97;;;8.30;99.90;;;;;;2612379;54;20285;-77
2022/03/29 03:39:49;;;;;;;40.23;26.70;;;8.40;99.90;;;;;;2610772;47;20428;-79
2022/03/29 03:42:16;;;;;;;45.73;29.90;;;8.40;99.90;;;;;;2610810;54;20932;-79
2022/03/29 03:44:42;;;;;;;47.37;28.20;;;8.30;99.90;;;;;;2613424;54;20544;-79
2022/03/29 03:47:08;;;;;;;41.57;29.67;;;8.20;99.90;;;;;;2612622;39;20976;-80
2022/03/29 03:49:38;;;;;;;55.40;31.70;;;8.20;99.90;;;;;;2612346;54;20147;-79
2022/03/29 03:52:06;;;;;;;47.57;28.33;;;8.30;99.90;;;;;;2611706;54;20394;-82
2022/03/29 03:54:34;;;;;;;47.13;30.13;;;8.30;99.90;;;;;;2610459;54;21085;-80
2022/03/29 03:57:00;;;;;;;40.70;27.60;;;8.30;99.90;;;;;;2611053;46;20444;-80
2022/03/29 03:59:25;;;;;;;47.23;30.90;;;8.20;99.90;;;;;;2611371;39;20831;-79
2022/03/29 04:01:51;;;;;;;48.50;30.17;;;8.20;99.90;;;;;;2612565;54;20141;-80
2022/03/29 04:04:17;;;;;;;43.77;29.07;;;8.10;99.90;;;;;;2611912;54;20164;-80
2022/03/29 04:06:43;;;;;;;63.63;32.40;;;8.10;99.90;;;;;;2613172;54;20452;-79
2022/03/29 04:09:08;;;;;;;46.13;30.27;;;8.10;99.90;;;;;;2612045;54;20165;-80
2022/03/29 04:11:34;;;;;;;47.50;30.33;;;8.10;99.90;;;;;;2612426;54;20155;-79
2022/03/29 04:14:00;;;;;;;47.40;30.27;;;8.00;99.90;;;;;;2612971;54;20187;-80
2022/03/29 04:16:27;;;;;;;46.97;30.20;;;7.90;99.90;;;;;;2612233;54;20165;-78
2022/03/29 04:18:53;;;;;;;44.07;29.97;;;8.00;99.90;;;;;;2612567;39;20633;-77
2022/03/29 04:21:18;;;;;;;47.50;30.63;;;8.00;99.90;;;;;;2612066;39;20863;-81
2022/03/29 04:23:45;;;;;;;47.90;29.37;;;8.00;99.90;;;;;;2611998;54;20413;-80
2022/03/29 04:26:11;;;;;;;53.03;34.77;;;7.90;99.90;;;;;;2611500;54;20681;-81
2022/03/29 04:28:37;;;;;;;50.50;30.70;;;8.00;99.90;;;;;;2613463;54;20414;-79
2022/03/29 04:31:03;;;;;;;47.73;31.43;;;7.90;99.90;;;;;;2611468;54;20412;-79
2022/03/29 04:33:29;;;;;;;52.50;31.90;;;7.80;99.90;;;;;;2611892;54;20152;-79
2022/03/29 04:35:55;;;;;;;45.70;30.57;;;7.70;99.90;;;;;;2611329;39;20973;-80
2022/03/29 04:38:23;;;;;;;48.13;30.00;;;7.70;99.90;;;;;;2611745;54;20430;-78
2022/03/29 04:40:49;;;;;;;50.73;32.60;;;7.70;99.90;;;;;;2613050;47;21019;-80
2022/03/29 04:43:15;;;;;;;55.10;34.00;;;7.60;99.90;;;;;;2612142;47;21062;-78
2022/03/29 04:45:41;;;;;;;51.60;33.27;;;7.60;99.90;;;;;;2612315;47;20439;-80
2022/03/29 04:48:07;;;;;;;56.87;33.03;;;7.60;99.90;;;;;;2610431;54;21051;-80
2022/03/29 04:50:33;;;;;;;55.53;34.00;;;7.60;99.90;;;;;;2610744;54;20194;-81
2022/03/29 04:52:59;;;;;;;53.63;33.30;;;7.60;99.90;;;;;;2611317;54;20968;-77
2022/03/29 04:55:25;;;;;;;64.43;33.30;;;7.60;99.90;;;;;;2610683;54;20423;-80
2022/03/29 04:57:51;;;;;;;57.70;34.37;;;7.50;99.90;;;;;;2611146;54;20159;-79
2022/03/29 05:00:20;;;;;;;57.83;33.60;;;7.50;99.90;;;;;;2611604;54;20200;-81
2022/03/29 05:02:47;;;;;;;60.80;36.10;;;7.60;99.90;;;;;;2612457;54;20418;-76
2022/03/29 05:05:14;;;;;;;67.73;37.10;;;7.40;99.90;;;;;;2614004;39;20633;-79
2022/03/29 05:07:41;;;;;;;70.60;40.07;;;7.40;99.90;;;;;;2612240;54;20428;-80
2022/03/29 05:10:08;;;;;;;65.07;37.33;;;7.40;99.90;;;;;;2612703;54;20480;-76
2022/03/29 05:12:45;;;;;;;67.03;35.77;;;7.30;99.90;;;;;;2610578;39;20794;-80
2022/03/29 05:15:12;;;;;;;72.63;35.90;;;7.20;99.90;;;;;;2611826;54;20939;-78
2022/03/29 05:17:39;;;;;;;72.90;38.40;;;7.20;99.90;;;;;;2611601;54;20434;-79
2022/03/29 05:20:06;;;;;;;77.23;40.27;;;7.10;99.90;;;;;;2611109;54;20392;-77
2022/03/29 05:22:39;;;;;;;79.77;38.73;;;7.00;99.90;;;;;;2608445;54;20430;-79
2022/03/29 05:25:05;;;;;;;88.03;41.13;;;7.00;99.90;;;;;;2611684;54;20404;-79
2022/03/29 05:27:31;;;;;;;100.27;42.93;;;7.00;99.90;;;;;;2610553;39;20814;-78
2022/03/29 05:29:57;;;;;;;92.10;44.07;;;7.00;99.90;;;;;;2609186;54;20483;-79
2022/03/29 05:32:23;;;;;;;109.80;49.57;;;7.00;99.90;;;;;;2610363;54;20807;-77
2022/03/29 05:34:49;;;;;;;104.77;46.13;;;6.90;99.90;;;;;;2611734;54;20685;-79
2022/03/29 05:37:15;;;;;;;105.73;49.07;;;7.00;99.90;;;;;;2612950;54;20197;-80
2022/03/29 05:39:43;;;;;;;107.97;48.97;;;7.00;99.90;;;;;;2610464;54;20407;-78
2022/03/29 05:42:10;;;;;;;133.43;53.37;;;7.10;99.90;;;;;;2609414;54;20402;-77
2022/03/29 05:44:37;;;;;;;123.37;52.20;;;7.00;99.90;;;;;;2611200;54;20511;-78
2022/03/29 05:49:48;;;;;;;104.53;49.60;;;7.10;99.90;;;;;;2610802;54;20416;-78
2022/03/29 05:52:14;;;;;;;115.67;50.20;;;7.20;99.90;;;;;;2609063;54;20415;-77
2022/03/29 05:54:44;;;;;;;138.17;57.90;;;7.20;99.90;;;;;;2610661;54;20203;-80
2022/03/29 05:57:11;;;;;;;125.03;54.23;;;7.30;99.90;;;;;;2609806;47;20445;-76
2022/03/29 05:59:37;;;;;;;118.33;53.47;;;7.30;99.90;;;;;;2607921;54;20550;-79
2022/03/29 06:02:04;;;;;;;133.77;54.33;;;7.40;99.90;;;;;;2610069;54;20376;-78
2022/03/29 06:04:34;;;;;;;135.40;51.43;;;7.40;99.90;;;;;;2612289;54;20477;-79
2022/03/29 06:07:00;;;;;;;128.67;56.30;;;7.40;99.90;;;;;;2609365;54;20395;-79
2022/03/29 06:09:25;;;;;;;147.87;57.73;;;7.30;99.90;;;;;;2611597;54;21004;-79
2022/03/29 06:11:51;;;;;;;152.27;59.77;;;7.40;99.90;;;;;;2611178;54;20165;-80
2022/03/29 06:14:17;;;;;;;124.30;55.87;;;7.50;99.90;;;;;;2611783;46;20214;-78
2022/03/29 06:16:43;;;;;;;140.93;57.53;;;7.50;99.90;;;;;;2612229;51;20280;-78
2022/03/29 06:19:10;;;;;;;149.13;58.70;;;7.60;99.90;;;;;;2611368;39;20522;-78
2022/03/29 06:21:37;;;;;;;131.37;54.37;;;7.60;99.90;;;;;;2611819;54;22227;-78
2022/03/29 06:24:08;;;;;;;146.60;63.10;;;7.60;99.90;;;;;;2610895;46;20472;-79
2022/03/29 06:26:44;;;;;;;131.33;53.10;;;7.70;99.90;;;;;;2610474;47;21108;-76
2022/03/29 06:29:11;;;;;;;160.50;55.83;;;7.70;99.90;;;;;;2610793;54;20403;-76
2022/03/29 06:31:39;;;;;;;141.30;57.80;;;7.70;99.90;;;;;;2610513;54;20418;-77
2022/03/29 06:34:06;;;;;;;126.17;56.37;;;7.70;99.90;;;;;;2611847;54;20409;-79
2022/03/29 06:36:32;;;;;;;130.67;55.30;;;7.70;99.90;;;;;;2610736;54;20411;-79
2022/03/29 06:38:58;;;;;;;122.50;50.37;;;7.80;99.90;;;;;;2610135;46;20505;-79
2022/03/29 06:41:24;;;;;;;130.53;56.47;;;7.70;99.90;;;;;;2611699;39;20896;-78
2022/03/29 06:43:50;;;;;;;118.83;52.07;;;7.80;99.90;;;;;;2609378;54;20504;-78
2022/03/29 06:46:17;;;;;;;122.67;50.77;;;7.80;99.90;;;;;;2612313;54;20150;-78
2022/03/29 06:48:44;;;;;;;111.70;53.87;;;7.80;99.90;;;;;;2610588;47;21193;-79
2022/03/29 06:51:13;;;;;;;109.23;51.80;;;7.90;99.90;;;;;;2612356;54;20433;-79
2022/03/29 06:53:40;;;;;;;97.00;44.63;;;8.00;99.90;;;;;;2612684;47;20947;-79
2022/03/29 06:56:07;;;;;;;95.77;43.83;;;8.00;99.90;;;;;;2612837;54;20409;-79
2022/03/29 06:58:36;;;;;;;87.97;47.00;;;8.00;99.90;;;;;;2612698;31;20963;-76
2022/03/29 07:01:03;;;;;;;97.47;45.60;;;8.00;99.90;;;;;;2612227;54;20426;-79
2022/03/29 07:03:30;;;;;;;78.90;41.10;;;8.00;99.90;;;;;;2614214;39;20952;-78
2022/03/29 07:05:58;;;;;;;95.47;45.40;;;7.90;99.90;;;;;;2610811;47;20429;-78
2022/03/29 07:08:25;;;;;;;90.40;43.10;;;7.90;99.90;;;;;;2610441;54;20438;-78
2022/03/29 07:13:37;;;;;;;87.20;45.47;;;7.90;99.90;;;;;;2611505;54;20479;-78
2022/03/29 07:16:04;;;;;;;84.30;42.20;;;7.80;99.90;;;;;;2610447;46;20418;-79
2022/03/29 07:18:30;;;;;;;93.67;46.67;;;7.80;99.90;;;;;;2612910;54;20468;-79
2022/03/29 07:20:56;;;;;;;98.90;47.73;;;7.70;99.90;;;;;;2611028;54;20422;-79
2022/03/29 07:23:21;;;;;;;106.83;48.57;;;7.80;99.90;;;;;;2610555;54;20440;-78
2022/03/29 07:25:47;;;;;;;125.17;50.57;;;7.70;99.90;;;;;;2612482;54;20422;-77
2022/03/29 07:28:14;;;;;;;108.87;48.47;;;7.70;99.90;;;;;;2609430;39;20883;-78
2022/03/29 07:30:43;;;;;;;111.40;47.97;;;7.70;99.90;;;;;;2611668;47;20164;-80
2022/03/29 07:33:11;;;;;;;102.57;48.20;;;7.70;99.90;;;;;;2611748;54;20985;-79
2022/03/29 07:35:38;;;;;;;108.30;49.00;;;7.70;99.90;;;;;;2610067;51;20416;-77
2022/03/29 07:38:07;;;;;;;108.50;48.40;;;7.70;99.90;;;;;;2610319;54;20398;-79
2022/03/29 07:40:34;;;;;;;95.77;48.50;;;7.80;99.90;;;;;;2609131;47;20409;-78
2022/03/29 07:43:00;;;;;;;107.43;49.30;;;7.80;99.90;;;;;;2610867;54;20428;-79
2022/03/29 07:45:27;;;;;;;102.20;46.50;;;7.90;99.90;;;;;;2611404;54;20425;-76
2022/03/29 07:47:56;;;;;;;112.47;45.40;;;7.80;99.90;;;;;;2610325;47;20584;-77
2022/03/29 07:50:23;;;;;;;95.60;45.50;;;7.80;99.90;;;;;;2609784;54;20419;-79
2022/03/29 07:52:50;;;;;;;113.33;47.17;;;7.90;99.90;;;;;;2644768;36;20470;-78
2022/03/29 07:55:17;;;;;;;90.30;46.00;;;8.00;99.90;;;;;;2610292;54;20957;-80
2022/03/29 07:57:45;;;;;;;106.03;48.27;;;8.00;99.90;;;;;;2609876;54;20414;-78
2022/03/29 08:03:15;;;;;;;94.30;43.40;;;8.10;99.90;;;;;;2610933;51;20410;-78
2022/03/29 08:05:42;;;;;;;107.37;48.80;;;8.10;99.90;;;;;;2611279;54;20409;-77
2022/03/29 08:08:11;;;;;;;100.67;46.20;;;8.10;99.90;;;;;;2610907;54;20422;-79
2022/03/29 08:10:37;;;;;;;97.63;48.07;;;8.20;99.90;;;;;;2611520;54;20459;-79
2022/03/29 08:13:07;;;;;;;76.07;44.93;;;8.30;99.90;;;;;;2611282;54;20460;-76
2022/03/29 08:15:37;;;;;;;84.27;43.70;;;8.30;99.90;;;;;;2610262;54;20455;-78
2022/03/29 08:18:03;;;;;;;92.10;46.37;;;8.30;99.90;;;;;;2611359;54;20397;-79
2022/03/29 08:20:29;;;;;;;82.90;40.90;;;8.30;99.90;;;;;;2610562;54;20428;-78
2022/03/29 08:23:00;;;;;;;78.53;43.10;;;8.30;99.90;;;;;;2611799;54;20590;-80
2022/03/29 08:25:29;;;;;;;81.67;43.33;;;8.40;99.90;;;;;;2612907;54;20521;-79
2022/03/29 08:27:56;;;;;;;75.77;39.30;;;8.40;99.90;;;;;;2610956;39;21012;-78
2022/03/29 08:30:24;;;;;;;68.57;39.10;;;8.30;99.90;;;;;;2611374;54;20427;-78
2022/03/29 08:32:51;;;;;;;77.67;41.60;;;8.30;99.90;;;;;;2610419;54;20442;-78
2022/03/29 08:35:17;;;;;;;69.40;42.10;;;8.30;99.90;;;;;;2611113;54;21259;-78
2022/03/29 08:37:43;;;;;;;76.07;45.03;;;8.50;99.90;;;;;;2610121;46;20433;-77
2022/03/29 08:40:13;;;;;;;73.27;44.50;;;8.50;99.90;;;;;;2610341;54;20188;-78
2022/03/29 08:42:44;;;;;;;69.37;40.80;;;8.50;99.90;;;;;;2609552;46;20473;-78
2022/03/29 08:45:11;;;;;;;77.30;40.30;;;8.60;99.90;;;;;;2612607;54;21027;-77
2022/03/29 08:47:40;;;;;;;78.87;41.10;;;8.70;99.90;;;;;;2611170;39;20805;-78
2022/03/29 08:50:10;;;;;;;66.20;39.60;;;8.90;99.90;;;;;;2611192;54;20560;-78
2022/03/29 08:52:37;;;;;;;66.03;40.73;;;8.90;99.90;;;;;;2611188;54;20422;-80
2022/03/29 08:55:04;;;;;;;75.97;42.40;;;9.10;99.90;;;;;;2610876;54;20433;-78
2022/03/29 08:57:33;;;;;;;81.33;44.90;;;9.10;99.90;;;;;;2610984;54;21044;-79
2022/03/29 08:59:59;;;;;;;82.73;44.97;;;9.00;99.90;;;;;;2610930;54;20962;-78
2022/03/29 09:02:25;;;;;;;90.77;47.10;;;8.90;99.90;;;;;;2628184;36;20479;-78
2022/03/29 09:05:09;;;;;;;103.43;50.13;;;8.90;99.90;;;;;;2612615;47;20945;-79
2022/03/29 09:07:56;;;;;;;90.30;47.80;;;8.90;99.90;;;;;;2609128;54;20431;-80
2022/03/29 09:10:45;;;;;;;83.00;45.97;;;8.90;99.90;;;;;;2611969;54;21118;-80
2022/03/29 09:13:19;;;;;;;77.40;43.97;;;8.90;99.90;;;;;;2612074;54;20501;-79
2022/03/29 09:15:45;;;;;;;79.20;42.40;;;8.90;99.90;;;;;;2610098;54;20410;-79
2022/03/29 09:18:11;;;;;;;91.87;45.43;;;8.90;99.90;;;;;;2610198;31;20897;-78
2022/03/29 09:20:39;;;;;;;76.13;43.00;;;8.90;99.90;;;;;;2611998;51;20413;-80
2022/03/29 09:23:05;;;;;;;79.43;43.27;;;9.00;99.90;;;;;;2610715;47;20449;-79
2022/03/29 09:25:35;;;;;;;72.27;36.87;;;9.20;99.90;;;;;;2610514;47;20427;-79
2022/03/29 09:28:03;;;;;;;88.90;45.30;;;9.20;99.90;;;;;;2610325;39;20834;-78
2022/03/29 09:30:38;;;;;;;88.17;46.57;;;9.20;99.90;;;;;;2610429;54;20454;-77
2022/03/29 09:33:08;;;;;;;85.30;45.07;;;9.10;99.90;;;;;;2611971;39;20807;-80
2022/03/29 09:35:50;;;;;;;88.07;46.97;;;9.10;99.90;;;;;;2610763;47;20411;-76
2022/03/29 09:38:29;;;;;;;88.63;46.80;;;9.00;99.90;;;;;;2611775;54;20442;-78
2022/03/29 09:40:58;;;;;;;99.23;47.80;;;9.10;99.90;;;;;;2610972;54;20419;-77
2022/03/29 09:44:11;;;;;;;95.77;49.00;;;9.10;99.90;;;;;;2612218;39;20789;-79
2022/03/29 09:46:59;;;;;;;102.90;48.93;;;9.30;99.90;;;;;;2663329;36;20481;-79
2022/03/29 09:49:26;;;;;;;81.77;47.07;;;9.30;99.90;;;;;;2611354;47;20895;-78
2022/03/29 09:52:07;;;;;;;99.30;48.60;;;9.40;99.90;;;;;;2611446;54;21160;-79
2022/03/29 09:54:33;;;;;;;101.03;47.17;;;9.50;99.90;;;;;;2610936;54;20403;-77
2022/03/29 09:56:59;;;;;;;98.47;51.73;;;9.60;99.90;;;;;;2609613;47;20526;-76
2022/03/29 09:59:25;;;;;;;100.63;49.70;;;9.70;99.90;;;;;;2610801;54;20163;-78
2022/03/29 10:01:52;;;;;;;103.10;50.73;;;9.70;99.90;;;;;;2612069;54;20142;-80
2022/03/29 10:04:20;;;;;;;112.03;54.23;;;9.70;99.90;;;;;;2612025;39;20670;-78
2022/03/29 10:06:49;;;;;;;105.47;51.47;;;9.60;99.90;;;;;;2611740;54;20429;-78
2022/03/29 10:09:27;;;;;;;111.23;54.80;;;9.70;99.90;;;;;;2613411;54;20443;-77
2022/03/29 10:11:58;;;;;;;123.13;55.73;;;9.80;99.90;;;;;;2611310;39;20923;-77
2022/03/29 10:14:26;;;;;;;115.80;54.27;;;9.80;99.90;;;;;;2609494;54;20494;-77
2022/03/29 10:16:57;;;;;;;107.70;52.87;;;9.80;99.90;;;;;;2611574;54;20943;-76
2022/03/29 10:19:23;;;;;;;104.93;49.60;;;9.90;99.90;;;;;;2611553;47;20437;-77
2022/03/29 10:21:50;;;;;;;93.70;51.87;;;9.80;99.90;;;;;;2612607;47;20434;-79
2022/03/29 10:24:18;;;;;;;109.23;52.00;;;9.80;99.90;;;;;;2611521;54;20410;-77
2022/03/29 10:26:46;;;;;;;99.57;51.20;;;9.90;99.90;;;;;;2612141;54;20458;-78
2022/03/29 10:29:12;;;;;;;94.33;47.80;;;9.90;99.90;;;;;;2611582;47;20425;-79
2022/03/29 10:31:48;;;;;;;112.17;53.63;;;9.90;99.90;;;;;;2609668;54;20497;-77
2022/03/29 10:34:20;;;;;;;111.13;54.47;;;9.90;99.90;;;;;;2612951;54;21009;-77
2022/03/29 10:37:14;;;;;;;122.33;52.40;;;9.90;99.90;;;;;;2610993;54;20427;-77
2022/03/29 10:39:52;;;;;;;124.53;55.20;;;9.90;99.90;;;;;;2612294;54;20422;-78
2022/03/29 10:42:44;;;;;;;98.87;52.93;;;9.90;99.90;;;;;;2612504;54;20420;-76
2022/03/29 10:45:24;;;;;;;120.87;52.00;;;9.90;99.90;;;;;;2611915;54;20472;-79
2022/03/29 10:47:58;;;;;;;118.77;54.83;;;9.90;99.90;;;;;;2612389;54;20947;-78
2022/03/29 10:50:50;;;;;;;103.53;50.23;;;10.10;99.90;;;;;;2611170;47;20985;-79
2022/03/29 10:53:37;;;;;;;90.67;49.73;;;10.40;99.90;;;;;;2611798;54;20430;-77
2022/03/29 10:56:26;;;;;;;106.37;48.50;;;10.50;99.90;;;;;;2611269;54;20415;-78
2022/03/29 10:59:04;;;;;;;101.47;51.60;;;10.50;99.90;;;;;;2611244;54;20488;-78
2022/03/29 11:01:35;;;;;;;95.60;52.83;;;10.60;99.90;;;;;;2610806;54;20509;-77
2022/03/29 11:04:13;;;;;;;110.47;58.90;;;10.80;99.90;;;;;;2612349;39;20792;-79
2022/03/29 11:07:04;;;;;;;126.37;57.37;;;10.80;99.90;;;;;;2611664;54;21047;-77
2022/03/29 11:09:31;;;;;;;119.13;58.90;;;10.80;99.90;;;;;;2610778;54;20954;-79
2022/03/29 11:11:57;;;;;;;110.10;52.07;;;10.70;99.90;;;;;;2611362;50;20431;-78
2022/03/29 11:14:33;;;;;;;104.23;52.40;;;10.60;99.90;;;;;;2612130;39;20832;-77
2022/03/29 11:17:11;;;;;;;107.00;52.13;;;10.60;99.90;;;;;;2612523;54;21358;-77
2022/03/29 11:19:50;;;;;;;100.83;45.10;;;10.60;99.90;;;;;;2610429;47;20948;-79
2022/03/29 11:22:29;;;;;;;86.37;45.77;;;10.50;99.90;;;;;;2611503;47;20531;-79
2022/03/29 11:25:06;;;;;;;91.93;47.63;;;10.50;99.90;;;;;;2612102;54;20426;-78
2022/03/29 11:27:34;;;;;;;104.47;51.70;;;10.60;99.90;;;;;;2610234;54;20426;-78
2022/03/29 11:30:07;;;;;;;91.47;49.00;;;10.80;99.90;;;;;;2610915;54;20415;-78
2022/03/29 11:32:34;;;;;;;96.87;47.73;;;10.80;99.90;;;;;;2611632;54;20441;-78
2022/03/29 11:35:04;;;;;;;95.00;51.17;;;10.80;99.90;;;;;;2610329;47;20418;-78
2022/03/29 11:37:40;;;;;;;95.77;49.23;;;10.80;99.90;;;;;;2609476;54;23021;-78
2022/03/29 11:40:09;;;;;;;85.87;42.70;;;11.00;99.90;;;;;;2611680;54;20443;-78
2022/03/29 11:42:59;;;;;;;77.93;40.33;;;11.10;99.90;;;;;;2611581;39;20882;-79
2022/03/29 11:45:30;;;;;;;83.77;43.07;;;11.10;99.90;;;;;;2610636;47;20426;-77
2022/03/29 11:48:04;;;;;;;85.70;44.80;;;11.10;99.90;;;;;;2610136;54;20415;-78
2022/03/29 11:50:45;;;;;;;73.43;40.30;;;11.20;99.90;;;;;;2609146;54;21463;-76
2022/03/29 11:53:15;;;;;;;74.67;37.80;;;11.10;99.90;;;;;;2610321;39;20790;-79
2022/03/29 11:55:43;;;;;;;76.20;39.70;;;10.70;99.90;;;;;;2611184;54;20392;-79
2022/03/29 11:58:26;;;;;;;72.70;39.50;;;10.60;99.90;;;;;;2611645;54;20411;-80
2022/03/29 12:00:57;;;;;;;70.73;40.30;;;10.50;99.90;;;;;;2609854;47;20937;-78
2022/03/29 12:03:34;;;;;;;61.57;33.70;;;10.50;99.90;;;;;;2610119;54;20414;-79
2022/03/29 12:06:14;;;;;;;68.80;32.83;;;10.30;99.90;;;;;;2610794;54;20424;-77
2022/03/29 12:08:56;;;;;;;71.87;34.80;;;10.20;99.90;;;;;;2610159;39;20704;-79
2022/03/29 12:11:24;;;;;;;72.50;41.33;;;10.20;99.90;;;;;;2611666;54;20408;-77
2022/03/29 12:14:10;;;;;;;72.33;40.40;;;10.10;99.90;;;;;;2611087;54;20446;-81
2022/03/29 12:16:47;;;;;;;66.13;36.20;;;10.30;99.90;;;;;;2611761;47;20435;-79
2022/03/29 12:19:17;;;;;;;75.77;39.40;;;10.40;99.90;;;;;;2612146;54;21850;-77
2022/03/29 12:21:51;;;;;;;65.73;35.50;;;10.60;99.90;;;;;;2612503;54;20407;-82
2022/03/29 12:24:18;;;;;;;71.40;38.97;;;10.70;99.90;;;;;;2610116;54;20411;-77
2022/03/29 12:27:14;;;;;;;73.43;38.87;;;10.90;99.90;;;;;;2612140;39;21123;-80
2022/03/29 12:29:44;;;;;;;63.37;38.10;;;11.00;99.90;;;;;;2610551;54;20435;-78
2022/03/29 12:32:11;;;;;;;61.80;35.90;;;11.00;99.90;;;;;;2610440;39;20801;-79
2022/03/29 12:34:37;;;;;;;65.97;35.20;;;10.90;99.90;;;;;;2611003;39;20814;-79
2022/03/29 12:37:05;;;;;;;59.53;35.37;;;11.00;99.90;;;;;;2610516;51;20434;-77
2022/03/29 12:39:40;;;;;;;67.17;39.83;;;11.10;99.90;;;;;;2612548;54;20938;-79
2022/03/29 12:42:16;;;;;;;62.43;36.77;;;11.20;99.90;;;;;;2609628;54;20443;-78
2022/03/29 12:44:52;;;;;;;66.03;40.77;;;11.40;99.90;;;;;;2610951;54;20996;-79
2022/03/29 12:47:18;;;;;;;63.97;38.90;;;11.40;99.90;;;;;;2610690;39;20885;-77
2022/03/29 12:49:49;;;;;;;58.53;34.57;;;11.60;99.90;;;;;;2610832;54;21070;-77
2022/03/29 12:52:16;;;;;;;59.47;36.20;;;11.70;99.90;;;;;;2610012;54;20435;-79
2022/03/29 12:54:42;;;;;;;50.27;34.77;;;11.80;99.90;;;;;;2610289;54;20431;-78